Список аэропортов
Фактическая погода:

26 июня, 23:30
Температура: +10°C (+9.2*)
Ветер: западный 2 м/с
Давление: *760 мм
Без существ. явл.
Время (МСК)Темп. СВетерВлажностьДавлениеОблачностьОсадки
21:00+11Ю, 1 м/с99%1015 гПаясно
22:00+10Ю, 1 м/с100%1015 гПаясно
23:00+9Ю, 1 м/с100%1015 гПас прояснениями
27 июня
00:00+8Ю, 1 м/с100%1015 гПаоблачно
01:00+8Ю, 1 м/с100%1015 гПаоблачно
02:00+8Штиль 100%1015 гПаоблачно
03:00+8Штиль 100%1015 гПаоблачно
04:00+9СВ, 1 м/с100%1014 гПаоблачно
05:00+12Штиль 98%1014 гПамалооблачно
06:00+14СВ, 1 м/с92%1014 гПаясно
07:00+16СВ, 1 м/с84%1013 гПаясно
08:00+19СВ, 1 м/с55%1013 гПаясно
09:00+20СВ, 2 м/с37%1013 гПамалооблачно
10:00+21СВ, 2 м/с33%1012 гПамалооблачно
11:00+22СВ, 2 м/с29%1011 гПаясно
12:00+23СВ, 2 м/с28%1011 гПамалооблачно
13:00+23СВ, 2 м/с28%1011 гПамалооблачно
14:00+23СВ, 2 м/с29%1011 гПамалооблачно
15:00+23СВ, 2 м/с30%1010 гПас прояснениямисл. дождь
16:00+21СВ, 3 м/с44%1010 гПаоблачно
17:00+20СВ, 2 м/с46%1010 гПамалооблачно
18:00+20СВ, 2 м/с42%1010 гПаясно
19:00+18СВ, 2 м/с52%1010 гПаясно
20:00+16СВ, 1 м/с64%1010 гПаясно
21:00+13В, 1 м/с82%1011 гПаясно
22:00+11В, 1 м/с95%1011 гПаясно
23:00+10В, 1 м/с98%1011 гПаясно
28 июня
00:00+9В, 1 м/с99%1011 гПамалооблачно
01:00+9В, 1 м/с99%1011 гПаясно
02:00+8В, 1 м/с100%1011 гПамалооблачно
03:00+8В, 1 м/с100%1011 гПас прояснениями
04:00+8СВ, 1 м/с99%1011 гПамалооблачно
05:00+11СВ, 2 м/с93%1011 гПаясно
06:00+14СВ, 2 м/с79%1011 гПаясно
07:00+17В, 3 м/с59%1011 гПаясно
08:00+20В, 3 м/с46%1010 гПаясно
09:00+22В, 4 м/с37%1010 гПаясно
10:00+22В, 4 м/с33%1010 гПаясно
11:00+23В, 4 м/с32%1009 гПаясно
12:00+24В, 5 м/с32%1009 гПамалооблачно
13:00+24В, 5 м/с32%1008 гПамалооблачно
14:00+24В, 4 м/с32%1008 гПамалооблачно
15:00+24В, 4 м/с32%1008 гПамалооблачно
16:00+24В, 4 м/с32%1008 гПамалооблачно
17:00+23В, 4 м/с34%1008 гПас прояснениями
18:00+22В, 3 м/с38%1008 гПаоблачно
19:00+21В, 2 м/с45%1007 гПаоблачно
20:00+19В, 2 м/с52%1008 гПаоблачно
21:00+17В, 2 м/с61%1008 гПаоблачно